Allen, Maryland
Current Conditions -  °F | °C
As of 8:54 PM on Wednesday 26 Nov 2014 (Local Time) from KSBY Reporting Station
Overcast Overcast  
Wind Chill: 33°   Ceiling: 900
Heat Index: 40°   Visibility: 10mi
Dew Point: 36°   Wind: 10mph
Humidity: 86%   Direction: 330°NNW
Pressure: 29.89"   Gusts: NA
Location:  38.29°N, 75.69°W
Report Text: KSBY 270154Z 33009KT 10SM OVC009 04/02 A2989 RMK AO2 RAE11 CIG 007V013 SLP124 P0000 T00440022
Loading
Personal Weather Stations






























Interactive Weather Map New forecast layout! Learn more

10-Day Weather Forecast

Advertisements
Track Severe Weather on mobile